Time;durP1;ratioP1;P1;durP2;ratioP2;P2;SDS_P1;SDS_P2;PMS_P1;PMS_P2;Temp;Humidity;BMP_temperature;BMP_pressure;BME280_temperature;BME280_humidity;BME280_pressure;Samples;Min_cycle;Max_cycle;Signal;HPM_P1;HPM_P2
2022/04/26 03:38:20;;;;;;;29.48;19.60;;;;;;;8.58;100.00;98462.31;2189756;81;21079;-91
2022/04/26 03:41:21;;;;;;;35.58;21.70;;;;;;;8.59;100.00;98461.33;2189863;81;21522;-90
2022/04/26 03:44:23;;;;;;;35.92;23.57;;;;;;;8.58;100.00;98467.53;2189846;81;21547;-91
2022/04/26 03:47:25;;;;;;;26.60;19.50;;;;;;;8.57;100.00;98467.22;2189863;81;21038;-91
2022/04/26 03:50:26;;;;;;;27.75;19.67;;;;;;;8.48;100.00;98471.17;2189909;81;20972;-91
2022/04/26 03:53:28;;;;;;;36.03;24.63;;;;;;;8.53;100.00;98471.48;2192580;79;21522;-92
2022/04/26 03:56:30;;;;;;;30.97;22.32;;;;;;;8.47;100.00;98464.34;2221937;80;21447;-91
2022/04/26 03:59:32;;;;;;;31.00;21.87;;;;;;;8.42;100.00;98469.27;2221831;80;21047;-91
2022/04/26 04:02:33;;;;;;;31.70;23.18;;;;;;;8.38;100.00;98471.08;2221925;80;20964;-92
2022/04/26 04:05:35;;;;;;;36.20;23.90;;;;;;;8.33;100.00;98475.48;2221716;80;20988;-91
2022/04/26 04:08:37;;;;;;;35.17;24.43;;;;;;;8.30;100.00;98484.13;2221838;80;22094;-91
2022/04/26 04:11:38;;;;;;;37.08;24.90;;;;;;;8.36;100.00;98484.30;2221692;80;20965;-90
2022/04/26 04:14:40;;;;;;;34.53;24.50;;;;;;;8.41;100.00;98487.68;2221586;80;20995;-90
2022/04/26 04:17:42;;;;;;;35.68;23.70;;;;;;;8.43;100.00;98490.46;2221565;80;21004;-87
2022/04/26 04:20:44;;;;;;;38.10;25.12;;;;;;;8.40;100.00;98500.41;2222425;80;20964;-87
2022/04/26 04:23:45;;;;;;;36.13;24.50;;;;;;;8.41;100.00;98505.48;2221923;80;20972;-85
2022/04/26 04:26:47;;;;;;;38.65;25.80;;;;;;;8.42;100.00;98507.59;2221952;80;20976;-87
2022/04/26 04:29:51;;;;;;;35.43;23.02;;;;;;;8.52;100.00;98512.92;2222443;80;22120;-85
2022/04/26 04:32:52;;;;;;;39.00;25.70;;;;;;;8.59;100.00;98522.66;2223049;80;20960;-86
2022/04/26 04:35:54;;;;;;;33.23;24.43;;;;;;;8.66;100.00;98526.21;2222571;80;20972;-86
2022/04/26 04:38:56;;;;;;;37.80;25.10;;;;;;;8.74;100.00;98517.84;2221876;80;21056;-85
2022/04/26 04:41:59;;;;;;;34.38;23.85;;;;;;;8.87;100.00;98525.59;2221992;80;21035;-85
2022/04/26 04:45:02;;;;;;;38.05;24.15;;;;;;;8.99;100.00;98530.75;2221806;80;20972;-90
2022/04/26 04:48:05;;;;;;;35.90;24.02;;;;;;;8.94;100.00;98535.17;2221728;80;21031;-86
2022/04/26 04:51:07;;;;;;;32.90;23.47;;;;;;;8.97;100.00;98540.08;2221752;80;21418;-89
2022/04/26 04:54:09;;;;;;;33.63;22.70;;;;;;;9.05;100.00;98537.41;2221632;80;21076;-86
2022/04/26 04:57:11;;;;;;;44.42;25.57;;;;;;;9.12;100.00;98537.50;2221712;80;20929;-87
2022/04/26 05:00:12;;;;;;;34.53;23.27;;;;;;;9.13;100.00;98543.05;2221600;80;21001;-88
2022/04/26 05:03:14;;;;;;;37.95;24.02;;;;;;;9.10;100.00;98539.48;2221628;80;21048;-86
2022/04/26 05:06:16;;;;;;;37.90;24.57;;;;;;;9.10;100.00;98543.41;2221307;80;21037;-86
2022/04/26 05:09:18;;;;;;;37.20;24.85;;;;;;;9.14;100.00;98547.28;2221616;80;21040;-87
2022/04/26 05:12:19;;;;;;;37.20;25.90;;;;;;;9.19;100.00;98551.50;2221646;80;21040;-88
2022/04/26 05:15:21;;;;;;;37.13;24.85;;;;;;;9.12;100.00;98551.38;2221656;80;21270;-88
2022/04/26 05:18:23;;;;;;;37.67;25.00;;;;;;;9.14;100.00;98556.42;2221563;80;21068;-88
2022/04/26 05:21:24;;;;;;;42.35;25.88;;;;;;;9.22;100.00;98561.59;2221705;80;20948;-86
2022/04/26 05:27:47;;;;;;;38.98;24.75;;;;;;;9.42;100.00;98563.27;2221685;80;21045;-88
2022/04/26 05:30:48;;;;;;;39.20;25.40;;;;;;;9.49;100.00;98563.35;2221845;80;20944;-88
2022/04/26 05:33:50;;;;;;;36.65;24.35;;;;;;;9.50;100.00;98573.63;2221853;80;20979;-86
2022/04/26 05:36:52;;;;;;;40.60;26.50;;;;;;;9.51;100.00;98579.20;2221720;80;21105;-88
2022/04/26 05:39:55;;;;;;;41.68;26.35;;;;;;;9.46;100.00;98581.52;2222545;80;20980;-86
2022/04/26 05:42:57;;;;;;;36.60;25.52;;;;;;;9.57;100.00;98581.09;2221940;80;21439;-87
2022/04/26 05:45:58;;;;;;;36.35;25.77;;;;;;;9.54;100.00;98585.38;2221655;80;21416;-90
2022/04/26 05:49:00;;;;;;;41.98;26.23;;;;;;;9.47;100.00;98584.44;2222665;80;21520;-86
2022/04/26 05:52:02;;;;;;;40.85;26.57;;;;;;;9.44;100.00;98600.48;2221648;80;21554;-86
2022/04/26 05:55:07;;;;;;;36.77;25.80;;;;;;;9.47;100.00;98590.16;2214687;80;21048;-87
2022/04/26 05:58:09;;;;;;;35.80;25.25;;;;;;;9.54;100.00;98596.32;2206232;81;21584;-87
2022/04/26 06:01:11;;;;;;;41.23;25.37;;;;;;;9.54;100.00;98601.55;2206532;81;21052;-90
2022/04/26 06:04:13;;;;;;;37.90;24.87;;;;;;;9.61;100.00;98603.79;2206413;81;20996;-87
2022/04/26 06:07:15;;;;;;;35.38;24.32;;;;;;;9.68;100.00;98605.50;2206325;81;20997;-86
2022/04/26 06:10:17;;;;;;;35.88;24.60;;;;;;;9.76;100.00;98604.62;2206972;81;20970;-87
2022/04/26 06:13:19;;;;;;;36.77;24.12;;;;;;;9.79;100.00;98613.44;2206616;81;21097;-87
2022/04/26 06:16:21;;;;;;;30.15;21.35;;;;;;;9.81;100.00;98615.88;2206647;81;21613;-90
2022/04/26 06:19:23;;;;;;;33.75;21.82;;;;;;;9.88;100.00;98608.45;2206197;81;21037;-85
2022/04/26 06:22:25;;;;;;;33.85;22.40;;;;;;;9.91;100.00;98615.13;2206306;80;21046;-87
2022/04/26 06:25:27;;;;;;;28.55;21.68;;;;;;;9.90;100.00;98614.81;2207629;81;21344;-83
2022/04/26 06:28:29;;;;;;;36.70;23.07;;;;;;;9.97;100.00;98620.96;2209093;79;20942;-82
2022/04/26 06:31:31;;;;;;;32.35;21.80;;;;;;;9.93;100.00;98620.98;2207380;81;21049;-87
2022/04/26 06:34:33;;;;;;;30.80;22.22;;;;;;;9.86;100.00;98614.83;2207525;81;20938;-87
2022/04/26 06:37:35;;;;;;;33.95;22.58;;;;;;;9.82;100.00;98622.72;2206835;81;21005;-88
2022/04/26 06:40:37;;;;;;;31.70;21.75;;;;;;;9.79;100.00;98625.70;2206767;81;21057;-87
2022/04/26 06:43:39;;;;;;;32.38;21.57;;;;;;;9.77;100.00;98624.55;2206941;81;21542;-90
2022/04/26 06:46:41;;;;;;;26.68;20.40;;;;;;;9.76;100.00;98622.92;2206898;81;21502;-87
2022/04/26 06:49:42;;;;;;;24.57;18.40;;;;;;;9.78;100.00;98635.32;2206561;81;20965;-91
2022/04/26 06:52:45;;;;;;;22.45;15.28;;;;;;;9.78;100.00;98622.25;2206503;81;20969;-89
2022/04/26 06:55:47;;;;;;;20.82;16.20;;;;;;;9.73;100.00;98632.94;2207173;80;21058;-91
2022/04/26 06:58:49;;;;;;;19.37;14.65;;;;;;;9.72;100.00;98628.20;2206915;81;21125;-90
2022/04/26 07:01:54;;;;;;;23.65;16.15;;;;;;;9.82;100.00;98630.08;2206523;81;21066;-89
2022/04/26 07:04:56;;;;;;;21.27;14.23;;;;;;;9.91;100.00;98633.44;2206437;81;21036;-93
2022/04/26 07:07:58;;;;;;;21.55;15.98;;;;;;;9.89;100.00;98645.38;2206554;81;21489;-89
2022/04/26 07:11:01;;;;;;;21.48;15.38;;;;;;;10.06;100.00;98638.21;2207850;81;21315;-89
2022/04/26 07:14:03;;;;;;;27.05;17.45;;;;;;;10.29;100.00;98639.47;2209113;81;21097;-89
2022/04/26 07:17:05;;;;;;;20.25;15.90;;;;;;;10.45;100.00;98640.62;2208198;81;21013;-89
2022/04/26 07:20:08;;;;;;;17.55;13.90;;;;;;;10.62;100.00;98641.25;2207370;81;21086;-88
2022/04/26 07:23:10;;;;;;;21.10;15.65;;;;;;;10.70;100.00;98649.52;2206503;81;21551;-87
2022/04/26 07:26:12;;;;;;;20.32;15.43;;;;;;;10.87;100.00;98645.68;2206853;81;21197;-85
2022/04/26 07:29:15;;;;;;;18.07;15.00;;;;;;;11.00;100.00;98641.12;2206286;79;21036;-88
2022/04/26 07:32:17;;;;;;;21.00;15.50;;;;;;;11.08;100.00;98652.80;2206235;81;21116;-87
2022/04/26 07:35:19;;;;;;;20.68;15.13;;;;;;;11.18;100.00;98655.12;2206480;81;20989;-87
2022/04/26 07:38:21;;;;;;;18.95;14.65;;;;;;;11.40;100.00;98657.58;2179986;81;21074;-87
2022/04/26 07:41:23;;;;;;;23.32;15.43;;;;;;;11.50;100.00;98666.95;2206282;81;20969;-87
2022/04/26 07:44:25;;;;;;;17.80;12.90;;;;;;;11.44;100.00;98661.97;2206285;81;21037;-87
2022/04/26 07:47:27;;;;;;;20.23;15.70;;;;;;;11.42;100.00;98671.80;2206344;81;21065;-88
2022/04/26 07:50:30;;;;;;;17.87;13.93;;;;;;;11.34;100.00;98671.95;2206291;81;20981;-88
2022/04/26 07:53:32;;;;;;;17.67;12.00;;;;;;;11.31;100.00;98677.55;2206307;81;21046;-88
2022/04/26 07:56:34;;;;;;;17.95;15.43;;;;;;;11.37;100.00;98675.50;2193426;80;21519;-88
2022/04/26 07:59:36;;;;;;;23.98;15.90;;;;;;;11.33;100.00;98676.34;2189733;81;21599;-87
2022/04/26 08:02:38;;;;;;;20.10;12.78;;;;;;;11.36;100.00;98680.44;2189812;81;20969;-88
2022/04/26 08:05:40;;;;;;;19.85;13.03;;;;;;;11.48;100.00;98688.62;2189667;81;21067;-87
2022/04/26 08:08:42;;;;;;;23.12;16.70;;;;;;;11.49;100.00;98686.31;2189732;81;21045;-87
2022/04/26 08:11:46;;;;;;;19.82;15.85;;;;;;;11.59;100.00;98690.24;2189688;81;21036;-87
2022/04/26 08:14:48;;;;;;;19.55;15.30;;;;;;;11.83;100.00;98697.48;2189639;81;21075;-88
2022/04/26 08:17:50;;;;;;;17.20;14.10;;;;;;;12.06;100.00;98705.13;2189600;81;21090;-88
2022/04/26 08:20:52;;;;;;;21.33;15.60;;;;;;;12.09;100.00;98698.22;2189750;81;21075;-88
2022/04/26 08:27:25;;;;;;;17.40;14.58;;;;;;;12.15;100.00;98701.38;2189691;81;21571;-87
2022/04/26 08:30:27;;;;;;;22.48;15.00;;;;;;;12.15;100.00;98701.38;2189986;81;20984;-87
2022/04/26 08:33:30;;;;;;;18.00;13.60;;;;;;;12.15;100.00;98713.19;2189877;81;20976;-88
2022/04/26 08:36:32;;;;;;;20.10;14.45;;;;;;;12.22;100.00;98718.00;2189764;81;21514;-89
2022/04/26 08:39:34;;;;;;;17.92;13.18;;;;;;;12.39;100.00;98714.09;2189628;81;21038;-88
2022/04/26 08:42:35;;;;;;;16.05;12.58;;;;;;;12.49;100.00;98714.56;2190567;81;21063;-87
2022/04/26 08:45:41;;;;;;;15.38;11.50;;;;;;;12.83;100.00;98710.84;2190654;81;21085;-87
2022/04/26 08:52:03;;;;;;;11.70;8.93;;;;;;;12.99;100.00;98715.28;2190619;81;21036;-88
2022/04/26 08:55:05;;;;;;;12.45;9.98;;;;;;;13.17;100.00;98723.16;2195494;79;20953;-89
2022/04/26 08:58:08;;;;;;;10.82;9.68;;;;;;;13.21;100.00;98719.95;2221681;80;21490;-88
2022/04/26 09:01:10;;;;;;;10.60;8.95;;;;;;;13.33;100.00;98724.14;2221600;80;21496;-88
2022/04/26 09:04:12;;;;;;;9.28;7.70;;;;;;;13.35;100.00;98723.46;2221613;80;21025;-89
2022/04/26 09:07:14;;;;;;;10.75;8.88;;;;;;;13.43;100.00;98727.20;2221637;80;20963;-88
2022/04/26 09:10:16;;;;;;;11.88;8.28;;;;;;;13.60;100.00;98727.16;2223169;80;20936;-86
2022/04/26 09:13:20;;;;;;;8.95;7.65;;;;;;;13.79;100.00;98728.22;2223083;80;21027;-88
2022/04/26 09:16:22;;;;;;;11.15;8.30;;;;;;;13.93;100.00;98735.14;2221993;80;20999;-89
2022/04/26 09:19:24;;;;;;;8.50;7.10;;;;;;;14.11;100.00;98730.60;2221737;80;21064;-88
2022/04/26 09:22:26;;;;;;;8.98;7.67;;;;;;;14.14;100.00;98737.28;2221768;80;20975;-89
2022/04/26 09:25:28;;;;;;;11.78;7.72;;;;;;;14.08;100.00;98736.28;2221951;80;21047;-88
2022/04/26 09:28:30;;;;;;;9.98;7.90;;;;;;;14.12;100.00;98732.73;2221824;80;20987;-88
2022/04/26 09:31:32;;;;;;;11.45;7.70;;;;;;;14.16;100.00;98733.93;2221878;80;20988;-89
2022/04/26 09:34:34;;;;;;;12.23;8.85;;;;;;;14.27;100.00;98737.81;2221810;80;21055;-89
2022/04/26 09:37:36;;;;;;;9.13;8.25;;;;;;;14.15;100.00;98736.27;2221730;80;21526;-89
2022/04/26 09:40:39;;;;;;;8.88;7.97;;;;;;;14.05;100.00;98737.17;2221845;80;20982;-87
2022/04/26 09:43:41;;;;;;;9.13;8.23;;;;;;;13.76;100.00;98737.02;2221728;80;21494;-88
2022/04/26 09:46:43;;;;;;;9.90;7.90;;;;;;;13.66;100.00;98736.09;2221718;80;20996;-86
2022/04/26 09:49:45;;;;;;;9.53;7.92;;;;;;;13.74;100.00;98735.11;2222803;80;20961;-87
2022/04/26 09:52:47;;;;;;;9.93;8.65;;;;;;;13.84;100.00;98739.48;2222883;80;21012;-87
2022/04/26 09:55:49;;;;;;;8.58;7.10;;;;;;;14.01;100.00;98740.72;2222361;80;20989;-88
2022/04/26 09:58:51;;;;;;;9.25;7.53;;;;;;;14.01;100.00;98741.23;2221751;80;21099;-88
2022/04/26 10:01:53;;;;;;;7.55;6.85;;;;;;;13.94;100.00;98744.66;2221664;80;20984;-88
2022/04/26 10:04:55;;;;;;;8.78;7.42;;;;;;;13.93;100.00;98746.17;2221214;80;21031;-89
2022/04/26 10:07:57;;;;;;;8.65;7.62;;;;;;;13.82;100.00;98741.00;2221534;80;21444;-89
2022/04/26 10:11:00;;;;;;;8.85;7.62;;;;;;;13.92;100.00;98736.66;2221541;80;21036;-89
2022/04/26 10:14:02;;;;;;;8.35;7.40;;;;;;;14.11;100.00;98740.33;2221823;80;20987;-89
2022/04/26 10:17:04;;;;;;;6.85;6.08;;;;;;;14.29;100.00;98752.90;2221539;80;20968;-89
2022/04/26 10:20:06;;;;;;;6.67;6.05;;;;;;;14.22;100.00;98745.80;2221526;80;21031;-89
2022/04/26 10:23:08;;;;;;;7.12;6.35;;;;;;;14.28;100.00;98751.28;2221571;80;20968;-89
2022/04/26 10:26:10;;;;;;;6.33;5.72;;;;;;;14.32;100.00;98753.29;2221585;80;20960;-89
2022/04/26 10:29:12;;;;;;;6.85;5.67;;;;;;;14.31;100.00;98754.30;2221584;80;20995;-89
2022/04/26 10:32:16;;;;;;;7.42;6.70;;;;;;;14.33;100.00;98753.59;2221631;80;20905;-89
2022/04/26 10:35:18;;;;;;;5.87;5.35;;;;;;;14.32;100.00;98757.75;2221462;80;21035;-89
2022/04/26 10:38:20;;;;;;;7.10;5.22;;;;;;;14.36;100.00;98755.03;2221802;80;21075;-89
2022/04/26 10:41:22;;;;;;;8.15;4.17;;;;;;;14.36;100.00;98752.40;2222030;80;21014;-89
2022/04/26 10:44:24;;;;;;;3.30;3.00;;;;;;;14.33;100.00;98754.91;2222087;80;20969;-88
2022/04/26 10:47:26;;;;;;;2.72;2.52;;;;;;;14.29;100.00;98755.02;2221960;80;21523;-87
2022/04/26 10:50:28;;;;;;;3.17;2.92;;;;;;;14.23;100.00;98754.50;2222021;80;20979;-88
2022/04/26 10:53:30;;;;;;;3.27;3.08;;;;;;;14.10;100.00;98755.31;2222005;80;21016;-87
2022/04/26 10:56:32;;;;;;;3.05;2.85;;;;;;;14.09;100.00;98762.91;2214143;80;21045;-88
2022/04/26 10:59:34;;;;;;;3.27;2.98;;;;;;;14.20;100.00;98760.98;2206321;81;21488;-88
2022/04/26 11:02:36;;;;;;;4.95;4.55;;;;;;;14.32;100.00;98759.06;2206458;81;21499;-89
2022/04/26 11:05:39;;;;;;;4.30;3.95;;;;;;;14.50;100.00;98757.98;2207851;81;21054;-86
2022/04/26 11:08:44;;;;;;;4.62;4.20;;;;;;;14.75;100.00;98760.30;2209764;81;20993;-86
2022/04/26 11:11:44;;;;;;;4.37;3.98;;;;;;;15.07;100.00;98762.55;2207710;81;21465;-89
2022/04/26 11:14:46;;;;;;;8.75;5.03;;;;;;;15.36;100.00;98762.58;2207049;81;21018;-88
2022/04/26 11:17:49;;;;;;;5.42;4.90;;;;;;;15.45;100.00;98764.95;2206392;81;21093;-89
2022/04/26 11:20:51;;;;;;;7.47;5.10;;;;;;;15.56;100.00;98759.05;2206555;81;20985;-88
2022/04/26 11:30:33;;;;;;;8.78;6.70;;;;;;;14.18;100.00;98775.38;2208142;81;21746;-87
2022/04/26 11:33:36;;;;;;;10.48;8.75;;;;;;;13.47;100.00;98773.16;2209130;81;21004;-86
2022/04/26 11:36:38;;;;;;;10.68;8.58;;;;;;;13.24;100.00;98774.77;2206862;81;21005;-89
2022/04/26 11:39:40;;;;;;;8.90;7.90;;;;;;;13.18;100.00;98779.48;2206343;81;21081;-89
2022/04/26 11:42:42;;;;;;;9.70;8.70;;;;;;;13.05;100.00;98781.52;2206352;81;21000;-87
2022/04/26 11:45:44;;;;;;;13.22;9.70;;;;;;;13.14;100.00;98778.23;2206478;81;21050;-86
2022/04/26 11:48:46;;;;;;;14.58;9.85;;;;;;;13.34;100.00;98775.22;2207875;81;21024;-84
2022/04/26 11:51:48;;;;;;;9.63;8.08;;;;;;;13.32;100.00;98778.55;2208331;81;21013;-87
2022/04/26 11:54:50;;;;;;;7.50;6.80;;;;;;;13.40;100.00;98777.58;2206442;81;21147;-87
2022/04/26 11:57:52;;;;;;;8.38;7.58;;;;;;;13.57;100.00;98781.50;2192026;80;21078;-87
2022/04/26 12:00:54;;;;;;;9.48;7.45;;;;;;;13.60;100.00;98783.72;2189734;81;21012;-88
2022/04/26 12:03:56;;;;;;;7.92;7.15;;;;;;;13.74;100.00;98780.64;2189793;81;21067;-88
2022/04/26 12:06:58;;;;;;;10.08;7.37;;;;;;;13.99;100.00;98781.39;2189643;81;21561;-89
2022/04/26 12:10:00;;;;;;;8.53;6.87;;;;;;;14.01;100.00;98778.89;2189624;81;21106;-89
2022/04/26 12:13:02;;;;;;;11.05;8.23;;;;;;;13.87;100.00;98780.67;2189569;81;21060;-87
2022/04/26 12:16:04;;;;;;;10.20;6.90;;;;;;;13.89;100.00;98778.64;2189642;81;21012;-88
2022/04/26 12:19:06;;;;;;;6.67;5.58;;;;;;;14.02;100.00;98777.88;2189583;81;21076;-88
2022/04/26 12:22:07;;;;;;;7.22;5.75;;;;;;;14.18;100.00;98783.28;2189588;81;21071;-89
2022/04/26 12:25:10;;;;;;;5.58;4.28;;;;;;;14.29;100.00;98778.72;2189680;81;21069;-88
2022/04/26 12:28:13;;;;;;;5.05;4.05;;;;;;;14.44;100.00;98783.78;2189757;81;20972;-88
2022/04/26 12:31:15;;;;;;;6.33;4.30;;;;;;;14.62;100.00;98787.16;2189587;81;21047;-87
2022/04/26 12:34:17;;;;;;;4.45;4.05;;;;;;;14.73;100.00;98785.24;2189706;81;21025;-88
2022/04/26 12:37:21;;;;;;;5.05;4.62;;;;;;;14.77;100.00;98783.30;2189604;81;20984;-88
2022/04/26 12:40:22;;;;;;;5.05;4.45;;;;;;;14.85;100.00;98786.23;2189614;81;20997;-88
2022/04/26 12:43:24;;;;;;;7.42;5.50;;;;;;;14.93;100.00;98785.22;2189770;81;21028;-87
2022/04/26 12:46:26;;;;;;;13.75;5.87;;;;;;;14.90;100.00;98790.37;2190065;81;20988;-88
2022/04/26 12:52:49;;;;;;;5.75;4.92;;;;;;;14.82;100.00;98778.75;2189922;81;21068;-87
2022/04/26 12:55:51;;;;;;;4.80;4.30;;;;;;;14.60;100.00;98780.77;2192181;79;21023;-88
2022/04/26 12:58:53;;;;;;;5.83;5.03;;;;;;;14.38;100.00;98771.44;2221713;80;21036;-88
2022/04/26 13:01:55;;;;;;;7.30;4.90;;;;;;;14.12;100.00;98780.12;2221730;80;20996;-88
2022/04/26 13:04:56;;;;;;;5.72;5.17;;;;;;;13.80;100.00;98779.83;2221737;80;20997;-89
2022/04/26 13:07:58;;;;;;;6.95;5.60;;;;;;;13.63;100.00;98778.09;2221689;80;20988;-88
2022/04/26 13:11:00;;;;;;;7.67;5.80;;;;;;;13.46;100.00;98778.12;2221666;80;21033;-88
2022/04/26 13:14:02;;;;;;;6.90;5.53;;;;;;;13.28;100.00;98776.52;2221705;80;20986;-88
2022/04/26 13:17:05;;;;;;;14.40;5.03;;;;;;;13.22;100.00;98785.17;2221683;80;20976;-88
2022/04/26 13:20:07;;;;;;;8.60;5.62;;;;;;;13.22;100.00;98783.86;2221774;80;20999;-89
2022/04/26 13:23:09;;;;;;;5.80;4.70;;;;;;;13.25;100.00;98785.59;2221878;80;20961;-88
2022/04/26 13:26:10;;;;;;;5.75;5.20;;;;;;;13.25;100.00;98777.70;2222334;80;20976;-87
2022/04/26 13:29:12;;;;;;;7.20;5.30;;;;;;;13.20;100.00;98794.58;2221884;80;20994;-89
2022/04/26 13:32:14;;;;;;;7.97;5.85;;;;;;;13.16;100.00;98783.28;2221821;80;21063;-89
2022/04/26 13:35:16;;;;;;;5.97;5.40;;;;;;;13.13;100.00;98788.44;2221747;80;21007;-89
2022/04/26 13:38:19;;;;;;;5.55;5.00;;;;;;;13.01;100.00;98789.99;2222518;80;21000;-84
2022/04/26 13:41:21;;;;;;;5.40;4.90;;;;;;;12.94;100.00;98789.13;2223103;79;21515;-86
2022/04/26 13:44:22;;;;;;;5.90;5.30;;;;;;;12.93;100.00;98790.14;2221872;80;21020;-86
2022/04/26 13:47:24;;;;;;;5.70;4.87;;;;;;;12.94;100.00;98786.50;2222013;80;20969;-88
2022/04/26 13:50:26;;;;;;;5.30;4.80;;;;;;;12.91;100.00;98785.59;2221892;80;20964;-87
2022/04/26 13:53:30;;;;;;;7.03;4.75;;;;;;;12.87;100.00;98790.90;2221820;79;20983;-88
2022/04/26 13:56:31;;;;;;;6.83;5.50;;;;;;;12.76;100.00;98792.25;2222639;79;21067;-87
2022/04/26 13:59:33;;;;;;;7.33;6.08;;;;;;;12.62;100.00;98794.45;2221960;80;21059;-88
2022/04/26 14:02:35;;;;;;;8.35;6.22;;;;;;;12.61;100.00;98798.89;2221883;80;21038;-89
2022/04/26 14:05:37;;;;;;;8.00;5.60;;;;;;;12.64;100.00;98797.72;2222597;80;20995;-86
2022/04/26 14:08:40;;;;;;;8.00;6.08;;;;;;;12.69;100.00;98801.88;2222185;80;21000;-89
2022/04/26 14:11:42;;;;;;;7.10;5.42;;;;;;;12.69;100.00;98797.95;2221790;80;21059;-86
2022/04/26 14:24:44;;;;;;;18.05;11.43;;;;;;;12.24;100.00;98800.80;2222750;80;20972;-86
2022/04/26 14:27:48;;;;;;;16.20;12.10;;;;;;;12.09;100.00;98804.50;2223131;80;20996;-89
2022/04/26 14:30:50;;;;;;;8.68;7.30;;;;;;;12.06;100.00;98799.61;2222412;80;21007;-89
2022/04/26 14:33:52;;;;;;;8.65;6.50;;;;;;;12.09;100.00;98806.63;2222054;80;20984;-92
2022/04/26 14:36:53;;;;;;;9.20;7.15;;;;;;;12.01;100.00;98805.44;2222290;80;21523;-92
2022/04/26 14:39:55;;;;;;;7.35;6.65;;;;;;;12.08;100.00;98808.13;2222096;80;21548;-88
2022/04/26 14:42:57;;;;;;;8.68;6.00;;;;;;;12.17;100.00;98809.14;2222187;80;20981;-91
2022/04/26 14:45:59;;;;;;;6.75;6.03;;;;;;;12.20;100.00;98809.25;2221805;80;21480;-89
2022/04/26 14:49:01;;;;;;;9.98;6.72;;;;;;;12.17;100.00;98808.33;2222510;80;21039;-94
2022/04/26 14:52:03;;;;;;;9.73;6.80;;;;;;;12.17;100.00;98808.33;2194317;80;21509;-92
2022/04/26 14:55:07;;;;;;;8.05;6.30;;;;;;;12.24;100.00;98811.80;2221940;80;21456;-91
2022/04/26 14:58:11;;;;;;;7.50;5.62;;;;;;;12.30;100.00;98815.50;2221488;80;21016;-90
2022/04/26 15:01:12;;;;;;;5.58;4.92;;;;;;;12.24;100.00;98811.30;2222141;80;21201;-89
2022/04/26 15:04:14;;;;;;;7.50;5.50;;;;;;;12.24;100.00;98815.23;2222571;80;20976;-89
2022/04/26 15:07:15;;;;;;;8.08;6.33;;;;;;;12.24;100.00;98811.80;2222033;80;21095;-91
2022/04/26 15:10:17;;;;;;;9.43;6.08;;;;;;;12.29;100.00;98816.00;2221892;80;21063;-87
2022/04/26 15:16:39;;;;;;;9.95;7.35;;;;;;;12.22;100.00;98810.68;2221730;80;21015;-87
2022/04/26 15:19:41;;;;;;;8.05;6.55;;;;;;;12.23;100.00;98814.13;2221820;80;21023;-85
2022/04/26 15:22:43;;;;;;;8.13;6.75;;;;;;;12.15;100.00;98817.67;2221788;80;21118;-86
2022/04/26 15:25:52;;;;;;;8.60;6.58;;;;;;;12.12;100.00;98812.00;2221823;80;20957;-86
2022/04/26 15:28:53;;;;;;;8.08;6.33;;;;;;;12.10;100.00;98808.75;2221720;80;21042;-89
2022/04/26 15:31:55;;;;;;;12.80;8.83;;;;;;;12.09;100.00;98815.81;2221768;80;21083;-87
2022/04/26 15:34:57;;;;;;;12.20;9.15;;;;;;;12.04;100.00;98818.17;2219030;79;21023;-89
2022/04/26 15:37:58;;;;;;;17.00;9.98;;;;;;;11.98;100.00;98818.09;2243994;79;21057;-89
2022/04/26 15:41:05;;;;;;;11.08;8.45;;;;;;;12.01;100.00;98817.24;2246825;78;20966;-87
2022/04/26 15:44:07;;;;;;;12.82;9.10;;;;;;;12.02;100.00;98819.37;2247645;79;20999;-84
2022/04/26 15:47:09;;;;;;;13.93;10.10;;;;;;;12.07;100.00;98824.85;2245996;79;20985;-88
2022/04/26 15:50:10;;;;;;;9.78;7.67;;;;;;;12.03;100.00;98815.23;2245836;79;20978;-87
2022/04/26 15:53:12;;;;;;;14.05;9.80;;;;;;;12.00;100.00;98820.88;2246114;79;20994;-88
2022/04/26 15:56:14;;;;;;;11.45;8.35;;;;;;;11.94;100.00;98818.98;2246159;79;21061;-90
2022/04/26 15:59:15;;;;;;;10.93;8.55;;;;;;;11.96;100.00;98822.22;2244954;79;21076;-88
2022/04/26 16:02:19;;;;;;;14.07;9.70;;;;;;;11.92;100.00;98820.48;2245069;79;21490;-88
2022/04/26 16:05:21;;;;;;;15.68;10.90;;;;;;;11.92;100.00;98820.48;2245100;79;20990;-88
2022/04/26 16:08:22;;;;;;;11.05;8.15;;;;;;;11.94;100.00;98823.72;2244926;79;20947;-88
2022/04/26 16:21:30;;;;;;;11.68;8.30;;;;;;;11.72;100.00;98832.53;2245096;79;21014;-89
2022/04/26 16:24:29;;;;;;;20.37;10.78;;;;;;;11.60;100.00;98829.55;2244042;79;20975;-92
2022/04/26 16:27:32;;;;;;;17.52;9.85;;;;;;;11.54;100.00;98828.98;2215740;79;21062;-89
2022/04/26 16:30:34;;;;;;;15.20;10.43;;;;;;;11.54;100.00;98828.98;2245600;79;21045;-88
2022/04/26 16:33:36;;;;;;;18.42;11.93;;;;;;;11.51;100.00;98828.52;2244987;79;21078;-88
2022/04/26 16:36:37;;;;;;;14.10;9.15;;;;;;;11.49;100.00;98820.84;2244925;79;21101;-89
2022/04/26 16:39:39;;;;;;;15.00;11.63;;;;;;;11.47;100.00;98820.22;2244873;79;21081;-88
2022/04/26 16:42:41;;;;;;;13.20;10.15;;;;;;;11.47;100.00;98825.95;2245640;79;21030;-87
2022/04/26 16:45:43;;;;;;;14.10;11.22;;;;;;;11.43;100.00;98829.45;2246829;79;22066;-88
2022/04/26 16:48:48;;;;;;;12.75;11.10;;;;;;;11.43;100.00;98832.08;2246795;79;20985;-89
2022/04/26 16:51:49;;;;;;;13.88;10.05;;;;;;;11.43;100.00;98828.61;2244867;79;21605;-90
2022/04/26 16:54:53;;;;;;;19.10;12.15;;;;;;;11.49;100.00;98828.70;2244733;79;21042;-87
2022/04/26 16:57:57;;;;;;;22.73;14.73;;;;;;;11.48;100.00;98835.45;2248083;79;21085;-87
2022/04/26 17:00:59;;;;;;;19.25;14.40;;;;;;;11.44;100.00;98830.27;2254653;79;21533;-86
2022/04/26 17:04:03;;;;;;;21.27;15.03;;;;;;;11.47;100.00;98839.88;2253183;79;21552;-87
2022/04/26 17:07:04;;;;;;;20.68;16.12;;;;;;;11.42;100.00;98841.41;2253098;79;21054;-87
2022/04/26 17:10:06;;;;;;;22.65;15.63;;;;;;;11.34;100.00;98839.72;2252977;79;21113;-88
2022/04/26 17:13:08;;;;;;;24.82;15.32;;;;;;;11.30;100.00;98840.55;2252902;79;21557;-88
2022/04/26 17:16:10;;;;;;;21.05;14.20;;;;;;;11.35;100.00;98840.84;2254338;79;21035;-87
2022/04/26 17:19:12;;;;;;;18.95;13.10;;;;;;;11.30;100.00;98835.31;2253880;79;20994;-89
2022/04/26 17:22:14;;;;;;;21.30;14.98;;;;;;;11.28;100.00;98837.81;2253058;79;20997;-87
2022/04/26 17:25:16;;;;;;;20.45;13.78;;;;;;;11.36;100.00;98840.34;2252800;79;21045;-84
2022/04/26 17:28:18;;;;;;;27.62;15.55;;;;;;;11.39;100.00;98844.72;2253098;79;21001;-87
2022/04/26 17:31:19;;;;;;;20.88;13.83;;;;;;;11.49;100.00;98848.37;2253767;79;20997;-86
2022/04/26 17:34:21;;;;;;;16.70;12.28;;;;;;;11.59;100.00;98846.28;2252862;79;21208;-89
2022/04/26 17:37:23;;;;;;;16.27;12.63;;;;;;;11.63;100.00;98848.87;2252698;79;21479;-85
2022/04/26 17:40:24;;;;;;;20.20;13.20;;;;;;;11.65;100.00;98848.68;2252712;79;21073;-89
2022/04/26 17:43:26;;;;;;;22.67;14.50;;;;;;;11.65;100.00;98849.99;2252774;79;20991;-89
2022/04/26 17:46:28;;;;;;;26.45;16.85;;;;;;;11.64;100.00;98855.73;2252722;79;21163;-90
2022/04/26 17:49:31;;;;;;;25.37;17.77;;;;;;;11.60;100.00;98858.39;2252352;79;21520;-90
2022/04/26 17:52:33;;;;;;;35.15;21.85;;;;;;;11.66;100.00;98858.98;2253487;79;20935;-89
2022/04/26 17:58:55;;;;;;;47.30;26.80;;;;;;;11.74;100.00;98862.51;2249311;78;21049;-91
2022/04/26 18:01:56;;;;;;;36.20;22.42;;;;;;;11.63;100.00;98868.54;2245892;79;21001;-90
2022/04/26 18:04:58;;;;;;;45.55;26.40;;;;;;;11.68;100.00;98870.59;2245890;79;20935;-89
2022/04/26 18:08:00;;;;;;;35.55;22.93;;;;;;;11.78;100.00;98872.94;2246604;79;21055;-91
2022/04/26 18:11:02;;;;;;;32.93;21.23;;;;;;;11.87;100.00;98883.17;2245907;79;21528;-92
2022/04/26 18:14:03;;;;;;;33.53;22.22;;;;;;;11.96;100.00;98886.51;2245598;79;20998;-90
2022/04/26 18:17:06;;;;;;;38.53;20.85;;;;;;;11.98;100.00;98893.72;2245687;79;20990;-90
2022/04/26 18:20:09;;;;;;;26.82;17.80;;;;;;;11.93;100.00;98898.20;2245426;79;21044;-92
2022/04/26 18:23:11;;;;;;;25.27;16.95;;;;;;;11.66;100.00;98901.45;2245396;79;20959;-90